sensor_id;sensor_type;location;lat;lon;timestamp;noise_LAeq;noise_LA_min;noise_LA_max;noise_LA01;noise_LA95
75467;Laerm;64050;50.634;3.062;2023-04-24T00:01:51;50.58;43.64;60.56;;
75467;Laerm;64050;50.634;3.062;2023-04-24T00:04:17;45.57;40.53;55.74;;
75467;Laerm;64050;50.634;3.062;2023-04-24T00:06:43;48.81;41.38;55.74;;
75467;Laerm;64050;50.634;3.062;2023-04-24T00:09:09;49.60;46.07;61.02;;
75467;Laerm;64050;50.634;3.062;2023-04-24T00:11:37;47.63;40.05;64.85;;
75467;Laerm;64050;50.634;3.062;2023-04-24T00:14:02;49.09;45.45;61.47;;
75467;Laerm;64050;50.634;3.062;2023-04-24T00:16:27;48.13;37.24;54.71;;
75467;Laerm;64050;50.634;3.062;2023-04-24T00:18:53;42.38;36.60;55.57;;
75467;Laerm;64050;50.634;3.062;2023-04-24T00:21:18;49.33;46.02;57.15;;
75467;Laerm;64050;50.634;3.062;2023-04-24T00:23:43;41.79;36.10;57.93;;
75467;Laerm;64050;50.634;3.062;2023-04-24T00:26:09;44.11;36.66;53.74;;
75467;Laerm;64050;50.634;3.062;2023-04-24T00:28:34;48.68;44.97;56.60;;
75467;Laerm;64050;50.634;3.062;2023-04-24T00:31:00;45.85;35.39;60.48;;
75467;Laerm;64050;50.634;3.062;2023-04-24T00:33:25;47.17;37.08;52.53;;
75467;Laerm;64050;50.634;3.062;2023-04-24T00:35:50;48.79;45.47;53.81;;
75467;Laerm;64050;50.634;3.062;2023-04-24T00:38:15;45.45;35.07;57.06;;
75467;Laerm;64050;50.634;3.062;2023-04-24T00:40:41;39.39;34.79;59.04;;
75467;Laerm;64050;50.634;3.062;2023-04-24T00:43:06;44.24;38.79;54.45;;
75467;Laerm;64050;50.634;3.062;2023-04-24T00:45:31;47.09;37.58;61.50;;
75467;Laerm;64050;50.634;3.062;2023-04-24T00:47:57;49.33;45.92;56.50;;
75467;Laerm;64050;50.634;3.062;2023-04-24T00:50:22;46.36;37.21;53.47;;
75467;Laerm;64050;50.634;3.062;2023-04-24T00:52:48;47.04;36.85;58.21;;
75467;Laerm;64050;50.634;3.062;2023-04-24T00:55:14;50.84;45.32;67.63;;
75467;Laerm;64050;50.634;3.062;2023-04-24T00:57:39;47.63;40.89;66.71;;
75467;Laerm;64050;50.634;3.062;2023-04-24T01:00:05;45.41;39.29;54.93;;
75467;Laerm;64050;50.634;3.062;2023-04-24T01:02:35;49.50;41.74;55.20;;
75467;Laerm;64050;50.634;3.062;2023-04-24T01:05:01;44.77;39.77;55.38;;
75467;Laerm;64050;50.634;3.062;2023-04-24T01:07:26;45.52;41.00;55.50;;
75467;Laerm;64050;50.634;3.062;2023-04-24T01:09:52;47.62;40.74;54.71;;
75467;Laerm;64050;50.634;3.062;2023-04-24T01:12:18;55.04;48.14;60.10;;
75467;Laerm;64050;50.634;3.062;2023-04-24T01:14:43;53.98;48.78;59.43;;
75467;Laerm;64050;50.634;3.062;2023-04-24T01:17:08;53.14;48.87;56.84;;
75467;Laerm;64050;50.634;3.062;2023-04-24T01:19:34;53.02;47.73;58.55;;
75467;Laerm;64050;50.634;3.062;2023-04-24T01:21:59;49.88;43.97;56.59;;
75467;Laerm;64050;50.634;3.062;2023-04-24T01:24:26;49.98;45.68;56.79;;
75467;Laerm;64050;50.634;3.062;2023-04-24T01:26:52;51.74;47.43;60.88;;
75467;Laerm;64050;50.634;3.062;2023-04-24T01:29:17;51.89;48.13;56.73;;
75467;Laerm;64050;50.634;3.062;2023-04-24T01:31:42;48.88;44.94;54.54;;
75467;Laerm;64050;50.634;3.062;2023-04-24T01:34:07;51.57;46.71;57.88;;
75467;Laerm;64050;50.634;3.062;2023-04-24T01:36:33;56.24;48.28;82.21;;
75467;Laerm;64050;50.634;3.062;2023-04-24T01:39:00;59.58;53.04;63.00;;
75467;Laerm;64050;50.634;3.062;2023-04-24T01:41:25;55.20;51.48;59.11;;
75467;Laerm;64050;50.634;3.062;2023-04-24T01:43:50;52.29;46.79;59.25;;
75467;Laerm;64050;50.634;3.062;2023-04-24T01:46:16;49.16;45.13;56.65;;
75467;Laerm;64050;50.634;3.062;2023-04-24T01:48:41;48.20;43.88;56.40;;
75467;Laerm;64050;50.634;3.062;2023-04-24T01:51:06;52.34;45.21;57.87;;
75467;Laerm;64050;50.634;3.062;2023-04-24T01:53:32;55.32;51.24;58.93;;
75467;Laerm;64050;50.634;3.062;2023-04-24T01:55:57;55.10;49.14;58.62;;
75467;Laerm;64050;50.634;3.062;2023-04-24T01:58:22;55.96;52.17;59.00;;
75467;Laerm;64050;50.634;3.062;2023-04-24T02:00:48;53.40;48.11;58.52;;
75467;Laerm;64050;50.634;3.062;2023-04-24T02:03:13;49.57;43.10;56.92;;
75467;Laerm;64050;50.634;3.062;2023-04-24T02:05:38;46.21;39.84;54.87;;
75467;Laerm;64050;50.634;3.062;2023-04-24T02:08:04;48.12;39.38;55.75;;
75467;Laerm;64050;50.634;3.062;2023-04-24T02:10:29;47.79;38.10;55.67;;
75467;Laerm;64050;50.634;3.062;2023-04-24T02:12:54;46.27;36.59;55.39;;
75467;Laerm;64050;50.634;3.062;2023-04-24T02:15:19;49.01;45.03;55.45;;
75467;Laerm;64050;50.634;3.062;2023-04-24T02:17:44;45.45;37.20;55.10;;
75467;Laerm;64050;50.634;3.062;2023-04-24T02:20:10;44.69;36.39;54.27;;
75467;Laerm;64050;50.634;3.062;2023-04-24T02:22:35;51.09;37.32;63.61;;
75467;Laerm;64050;50.634;3.062;2023-04-24T02:25:00;40.92;35.43;52.85;;
75467;Laerm;64050;50.634;3.062;2023-04-24T02:27:26;39.46;34.95;53.15;;
75467;Laerm;64050;50.634;3.062;2023-04-24T02:29:51;40.17;34.70;52.62;;
75467;Laerm;64050;50.634;3.062;2023-04-24T02:32:16;45.96;35.90;54.46;;
75467;Laerm;64050;50.634;3.062;2023-04-24T02:34:41;48.73;45.32;52.98;;
75467;Laerm;64050;50.634;3.062;2023-04-24T02:37:06;46.07;36.98;52.19;;
75467;Laerm;64050;50.634;3.062;2023-04-24T02:39:32;50.00;46.65;55.61;;
75467;Laerm;64050;50.634;3.062;2023-04-24T02:41:57;47.85;40.05;55.18;;
75467;Laerm;64050;50.634;3.062;2023-04-24T02:44:23;46.45;39.80;56.61;;
75467;Laerm;64050;50.634;3.062;2023-04-24T02:46:48;45.53;38.25;55.04;;
75467;Laerm;64050;50.634;3.062;2023-04-24T02:49:13;48.34;39.34;57.52;;
75467;Laerm;64050;50.634;3.062;2023-04-24T02:51:38;48.68;38.55;55.93;;
75467;Laerm;64050;50.634;3.062;2023-04-24T02:54:06;45.85;39.34;56.80;;
75467;Laerm;64050;50.634;3.062;2023-04-24T02:56:31;50.22;46.47;57.26;;
75467;Laerm;64050;50.634;3.062;2023-04-24T02:58:56;49.75;39.36;57.37;;
75467;Laerm;64050;50.634;3.062;2023-04-24T03:01:22;44.44;36.83;56.10;;
75467;Laerm;64050;50.634;3.062;2023-04-24T03:03:47;49.25;39.47;55.02;;
75467;Laerm;64050;50.634;3.062;2023-04-24T03:06:12;47.62;38.07;55.57;;
75467;Laerm;64050;50.634;3.062;2023-04-24T03:08:37;44.34;37.69;55.12;;
75467;Laerm;64050;50.634;3.062;2023-04-24T03:11:02;42.46;37.04;53.90;;
75467;Laerm;64050;50.634;3.062;2023-04-24T03:13:28;42.44;37.08;53.75;;
75467;Laerm;64050;50.634;3.062;2023-04-24T03:15:53;48.07;37.51;55.37;;
75467;Laerm;64050;50.634;3.062;2023-04-24T03:18:19;49.23;45.85;54.26;;
75467;Laerm;64050;50.634;3.062;2023-04-24T03:20:47;48.30;40.07;56.60;;
75467;Laerm;64050;50.634;3.062;2023-04-24T03:23:12;50.45;43.48;57.63;;
75467;Laerm;64050;50.634;3.062;2023-04-24T03:25:37;53.20;45.99;59.43;;
75467;Laerm;64050;50.634;3.062;2023-04-24T03:28:03;51.26;44.68;57.10;;
75467;Laerm;64050;50.634;3.062;2023-04-24T03:30:28;54.41;47.81;60.20;;
75467;Laerm;64050;50.634;3.062;2023-04-24T03:32:53;57.62;52.17;62.14;;
75467;Laerm;64050;50.634;3.062;2023-04-24T03:35:18;55.19;48.67;62.50;;
75467;Laerm;64050;50.634;3.062;2023-04-24T03:37:44;51.58;45.88;58.24;;
75467;Laerm;64050;50.634;3.062;2023-04-24T03:40:09;52.18;45.93;57.61;;
75467;Laerm;64050;50.634;3.062;2023-04-24T03:42:34;49.90;44.19;57.68;;
75467;Laerm;64050;50.634;3.062;2023-04-24T03:44:59;48.51;43.38;56.49;;
75467;Laerm;64050;50.634;3.062;2023-04-24T03:47:25;50.16;41.67;55.94;;
75467;Laerm;64050;50.634;3.062;2023-04-24T03:49:50;46.66;40.51;58.46;;
75467;Laerm;64050;50.634;3.062;2023-04-24T03:52:16;47.00;41.49;55.01;;
75467;Laerm;64050;50.634;3.062;2023-04-24T03:54:41;47.54;42.35;54.45;;
75467;Laerm;64050;50.634;3.062;2023-04-24T03:57:06;47.23;40.87;57.84;;
75467;Laerm;64050;50.634;3.062;2023-04-24T03:59:31;48.71;40.28;56.65;;
75467;Laerm;64050;50.634;3.062;2023-04-24T04:01:56;49.32;43.11;57.46;;
75467;Laerm;64050;50.634;3.062;2023-04-24T04:04:22;46.15;39.83;56.55;;
75467;Laerm;64050;50.634;3.062;2023-04-24T04:06:47;48.80;40.97;54.43;;
75467;Laerm;64050;50.634;3.062;2023-04-24T04:09:12;48.79;39.20;53.57;;
75467;Laerm;64050;50.634;3.062;2023-04-24T04:11:38;45.29;38.73;53.93;;
75467;Laerm;64050;50.634;3.062;2023-04-24T04:14:03;49.85;46.58;54.32;;
75467;Laerm;64050;50.634;3.062;2023-04-24T04:16:28;49.17;40.32;57.26;;
75467;Laerm;64050;50.634;3.062;2023-04-24T04:18:54;44.87;39.84;53.04;;
75467;Laerm;64050;50.634;3.062;2023-04-24T04:21:19;49.84;46.19;57.12;;
75467;Laerm;64050;50.634;3.062;2023-04-24T04:23:44;47.30;39.59;53.11;;
75467;Laerm;64050;50.634;3.062;2023-04-24T04:26:10;46.68;38.61;54.23;;
75467;Laerm;64050;50.634;3.062;2023-04-24T04:28:36;50.07;46.01;57.04;;
75467;Laerm;64050;50.634;3.062;2023-04-24T04:31:02;47.64;39.59;52.65;;
75467;Laerm;64050;50.634;3.062;2023-04-24T04:33:28;44.03;40.00;52.66;;
75467;Laerm;64050;50.634;3.062;2023-04-24T04:35:53;44.27;39.89;54.97;;
75467;Laerm;64050;50.634;3.062;2023-04-24T04:38:19;57.11;40.17;81.38;;
75467;Laerm;64050;50.634;3.062;2023-04-24T04:40:44;51.44;43.14;63.95;;
75467;Laerm;64050;50.634;3.062;2023-04-24T04:43:10;47.49;41.04;57.23;;
75467;Laerm;64050;50.634;3.062;2023-04-24T04:45:36;49.22;45.72;53.71;;
75467;Laerm;64050;50.634;3.062;2023-04-24T04:48:02;45.86;39.79;52.72;;
75467;Laerm;64050;50.634;3.062;2023-04-24T04:50:28;47.34;39.95;52.90;;
75467;Laerm;64050;50.634;3.062;2023-04-24T04:52:53;50.32;43.99;57.47;;
75467;Laerm;64050;50.634;3.062;2023-04-24T04:55:19;44.89;40.04;51.04;;
75467;Laerm;64050;50.634;3.062;2023-04-24T04:57:47;49.81;40.39;59.99;;
75467;Laerm;64050;50.634;3.062;2023-04-24T05:00:12;45.91;37.71;66.79;;
75467;Laerm;64050;50.634;3.062;2023-04-24T05:02:38;48.31;38.16;58.65;;
75467;Laerm;64050;50.634;3.062;2023-04-24T05:05:03;48.27;44.88;56.94;;
75467;Laerm;64050;50.634;3.062;2023-04-24T05:07:29;51.03;48.06;56.26;;
75467;Laerm;64050;50.634;3.062;2023-04-24T05:09:54;50.46;44.53;60.87;;
75467;Laerm;64050;50.634;3.062;2023-04-24T05:12:20;50.21;45.39;56.11;;
75467;Laerm;64050;50.634;3.062;2023-04-24T05:14:45;47.31;40.18;58.82;;
75467;Laerm;64050;50.634;3.062;2023-04-24T05:17:10;45.17;39.80;60.66;;
75467;Laerm;64050;50.634;3.062;2023-04-24T05:19:36;45.65;40.36;56.57;;
75467;Laerm;64050;50.634;3.062;2023-04-24T05:22:03;46.36;40.72;53.40;;
75467;Laerm;64050;50.634;3.062;2023-04-24T05:24:30;49.48;45.55;59.43;;
75467;Laerm;64050;50.634;3.062;2023-04-24T05:26:55;47.57;39.59;60.04;;
75467;Laerm;64050;50.634;3.062;2023-04-24T05:29:22;47.09;38.98;56.28;;
75467;Laerm;64050;50.634;3.062;2023-04-24T05:31:47;50.02;44.66;60.91;;
75467;Laerm;64050;50.634;3.062;2023-04-24T05:34:12;47.32;39.14;66.10;;
75467;Laerm;64050;50.634;3.062;2023-04-24T05:36:37;43.87;39.74;51.78;;
75467;Laerm;64050;50.634;3.062;2023-04-24T05:39:03;49.70;39.88;55.70;;
75467;Laerm;64050;50.634;3.062;2023-04-24T05:41:30;44.40;38.97;55.80;;
75467;Laerm;64050;50.634;3.062;2023-04-24T05:43:55;44.90;39.44;61.89;;
75467;Laerm;64050;50.634;3.062;2023-04-24T05:46:20;45.44;39.52;58.40;;
75467;Laerm;64050;50.634;3.062;2023-04-24T05:48:45;50.53;40.53;70.43;;
75467;Laerm;64050;50.634;3.062;2023-04-24T05:51:11;53.56;41.16;72.80;;
75467;Laerm;64050;50.634;3.062;2023-04-24T05:53:36;52.29;40.59;79.45;;
75467;Laerm;64050;50.634;3.062;2023-04-24T05:56:01;48.68;41.66;70.39;;
75467;Laerm;64050;50.634;3.062;2023-04-24T05:58:26;50.43;40.74;65.56;;
75467;Laerm;64050;50.634;3.062;2023-04-24T06:00:51;48.98;39.38;71.74;;
75467;Laerm;64050;50.634;3.062;2023-04-24T06:03:17;45.31;38.80;60.50;;
75467;Laerm;64050;50.634;3.062;2023-04-24T06:05:42;48.31;43.22;59.89;;
75467;Laerm;64050;50.634;3.062;2023-04-24T06:08:07;49.34;44.71;60.21;;
75467;Laerm;64050;50.634;3.062;2023-04-24T06:10:32;49.84;43.87;68.80;;
75467;Laerm;64050;50.634;3.062;2023-04-24T06:12:58;47.61;40.42;64.51;;
75467;Laerm;64050;50.634;3.062;2023-04-24T06:15:26;44.62;39.39;54.75;;
75467;Laerm;64050;50.634;3.062;2023-04-24T06:17:52;51.62;40.27;71.26;;
75467;Laerm;64050;50.634;3.062;2023-04-24T06:20:17;52.44;40.21;72.48;;
75467;Laerm;64050;50.634;3.062;2023-04-24T06:22:42;55.96;44.06;75.01;;
75467;Laerm;64050;50.634;3.062;2023-04-24T06:25:07;62.70;44.98;94.23;;
75467;Laerm;64050;50.634;3.062;2023-04-24T06:27:33;54.11;43.60;78.60;;
75467;Laerm;64050;50.634;3.062;2023-04-24T06:29:58;54.40;42.79;82.78;;
75467;Laerm;64050;50.634;3.062;2023-04-24T06:32:23;48.69;41.07;68.03;;
75467;Laerm;64050;50.634;3.062;2023-04-24T06:34:50;47.74;41.66;64.63;;
75467;Laerm;64050;50.634;3.062;2023-04-24T06:37:15;44.06;39.84;54.35;;
75467;Laerm;64050;50.634;3.062;2023-04-24T06:39:41;43.83;39.05;61.08;;
75467;Laerm;64050;50.634;3.062;2023-04-24T06:42:06;45.34;39.47;61.92;;
75467;Laerm;64050;50.634;3.062;2023-04-24T06:44:33;48.28;40.72;70.40;;
75467;Laerm;64050;50.634;3.062;2023-04-24T06:47:02;48.16;41.20;68.35;;
75467;Laerm;64050;50.634;3.062;2023-04-24T06:49:28;49.76;44.15;66.54;;
75467;Laerm;64050;50.634;3.062;2023-04-24T06:51:53;48.02;41.43;62.77;;
75467;Laerm;64050;50.634;3.062;2023-04-24T06:54:18;50.15;43.10;63.98;;
75467;Laerm;64050;50.634;3.062;2023-04-24T06:56:43;51.65;43.47;74.66;;
75467;Laerm;64050;50.634;3.062;2023-04-24T06:59:10;49.97;43.78;67.40;;
75467;Laerm;64050;50.634;3.062;2023-04-24T07:01:35;50.66;43.74;66.84;;
75467;Laerm;64050;50.634;3.062;2023-04-24T07:04:01;55.18;44.54;75.12;;
75467;Laerm;64050;50.634;3.062;2023-04-24T07:06:26;52.80;45.08;73.37;;
75467;Laerm;64050;50.634;3.062;2023-04-24T07:08:52;53.20;45.30;73.69;;
75467;Laerm;64050;50.634;3.062;2023-04-24T07:11:17;52.64;45.50;73.11;;
75467;Laerm;64050;50.634;3.062;2023-04-24T07:13:42;56.70;44.48;78.75;;
75467;Laerm;64050;50.634;3.062;2023-04-24T07:16:09;51.13;43.78;71.12;;
75467;Laerm;64050;50.634;3.062;2023-04-24T07:18:34;50.09;44.67;58.14;;
75467;Laerm;64050;50.634;3.062;2023-04-24T07:21:01;50.97;45.85;62.23;;
75467;Laerm;64050;50.634;3.062;2023-04-24T07:23:26;50.83;46.53;62.97;;
75467;Laerm;64050;50.634;3.062;2023-04-24T07:25:51;50.72;45.25;60.67;;
75467;Laerm;64050;50.634;3.062;2023-04-24T07:28:17;51.17;45.11;59.72;;
75467;Laerm;64050;50.634;3.062;2023-04-24T07:30:43;48.67;43.26;62.98;;
75467;Laerm;64050;50.634;3.062;2023-04-24T07:33:08;51.20;46.98;67.50;;
75467;Laerm;64050;50.634;3.062;2023-04-24T07:35:33;50.20;44.08;64.68;;
75467;Laerm;64050;50.634;3.062;2023-04-24T07:37:59;47.29;42.85;60.60;;
75467;Laerm;64050;50.634;3.062;2023-04-24T07:40:24;49.37;43.20;69.12;;
75467;Laerm;64050;50.634;3.062;2023-04-24T07:42:50;48.82;43.16;66.18;;
75467;Laerm;64050;50.634;3.062;2023-04-24T07:45:15;49.27;45.21;56.03;;
75467;Laerm;64050;50.634;3.062;2023-04-24T07:47:41;49.96;45.82;59.59;;
75467;Laerm;64050;50.634;3.062;2023-04-24T07:50:08;50.44;46.45;62.08;;
75467;Laerm;64050;50.634;3.062;2023-04-24T07:52:34;49.10;43.10;63.36;;
75467;Laerm;64050;50.634;3.062;2023-04-24T07:54:59;48.88;43.90;63.79;;
75467;Laerm;64050;50.634;3.062;2023-04-24T07:57:25;50.32;45.99;62.81;;
75467;Laerm;64050;50.634;3.062;2023-04-24T07:59:50;49.15;43.46;66.33;;
75467;Laerm;64050;50.634;3.062;2023-04-24T08:02:16;49.70;44.24;67.38;;
75467;Laerm;64050;50.634;3.062;2023-04-24T08:04:41;49.02;43.94;64.17;;
75467;Laerm;64050;50.634;3.062;2023-04-24T08:07:07;48.04;43.29;58.54;;
75467;Laerm;64050;50.634;3.062;2023-04-24T08:09:32;49.81;43.03;70.01;;
75467;Laerm;64050;50.634;3.062;2023-04-24T08:11:58;50.89;44.74;67.32;;
75467;Laerm;64050;50.634;3.062;2023-04-24T08:14:23;49.30;43.70;60.58;;
75467;Laerm;64050;50.634;3.062;2023-04-24T08:16:48;48.40;43.18;62.98;;
75467;Laerm;64050;50.634;3.062;2023-04-24T08:19:13;49.27;43.24;62.11;;
75467;Laerm;64050;50.634;3.062;2023-04-24T08:21:38;49.92;42.83;63.83;;
75467;Laerm;64050;50.634;3.062;2023-04-24T08:24:04;52.88;43.56;72.35;;
75467;Laerm;64050;50.634;3.062;2023-04-24T08:26:32;48.81;43.19;59.16;;
75467;Laerm;64050;50.634;3.062;2023-04-24T08:28:57;49.25;43.22;68.64;;
75467;Laerm;64050;50.634;3.062;2023-04-24T08:31:23;50.63;44.64;57.17;;
75467;Laerm;64050;50.634;3.062;2023-04-24T08:33:49;50.28;46.35;59.55;;
75467;Laerm;64050;50.634;3.062;2023-04-24T08:36:15;50.78;45.88;63.09;;
75467;Laerm;64050;50.634;3.062;2023-04-24T08:38:40;49.95;46.48;59.51;;
75467;Laerm;64050;50.634;3.062;2023-04-24T08:41:06;48.26;42.40;64.90;;
75467;Laerm;64050;50.634;3.062;2023-04-24T08:43:33;48.86;42.59;58.78;;
75467;Laerm;64050;50.634;3.062;2023-04-24T08:45:59;52.10;46.24;69.29;;
75467;Laerm;64050;50.634;3.062;2023-04-24T08:48:24;49.57;44.36;63.11;;
75467;Laerm;64050;50.634;3.062;2023-04-24T08:50:50;47.86;43.51;55.56;;
75467;Laerm;64050;50.634;3.062;2023-04-24T08:53:16;49.84;43.82;59.82;;
75467;Laerm;64050;50.634;3.062;2023-04-24T08:55:43;51.62;46.28;61.89;;
75467;Laerm;64050;50.634;3.062;2023-04-24T08:58:08;49.93;46.27;63.02;;
75467;Laerm;64050;50.634;3.062;2023-04-24T09:00:34;48.65;42.66;62.19;;
75467;Laerm;64050;50.634;3.062;2023-04-24T09:03:00;54.63;42.68;82.39;;
75467;Laerm;64050;50.634;3.062;2023-04-24T09:05:25;52.38;45.30;68.42;;
75467;Laerm;64050;50.634;3.062;2023-04-24T09:07:55;51.34;43.49;67.30;;
75467;Laerm;64050;50.634;3.062;2023-04-24T09:10:22;52.25;45.66;65.63;;
75467;Laerm;64050;50.634;3.062;2023-04-24T09:12:47;51.05;45.58;68.64;;
75467;Laerm;64050;50.634;3.062;2023-04-24T09:15:12;50.46;45.05;61.99;;
75467;Laerm;64050;50.634;3.062;2023-04-24T09:17:38;55.06;45.00;68.63;;
75467;Laerm;64050;50.634;3.062;2023-04-24T09:20:03;56.50;50.85;68.95;;
75467;Laerm;64050;50.634;3.062;2023-04-24T09:22:29;55.73;50.94;68.57;;
75467;Laerm;64050;50.634;3.062;2023-04-24T09:25:04;55.62;51.04;70.59;;
75467;Laerm;64050;50.634;3.062;2023-04-24T09:27:31;55.17;51.26;68.43;;
75467;Laerm;64050;50.634;3.062;2023-04-24T09:29:56;55.31;49.67;62.84;;
75467;Laerm;64050;50.634;3.062;2023-04-24T09:32:22;56.12;50.57;70.47;;
75467;Laerm;64050;50.634;3.062;2023-04-24T09:34:50;57.75;51.05;72.39;;
75467;Laerm;64050;50.634;3.062;2023-04-24T09:37:29;59.50;51.31;78.21;;
75467;Laerm;64050;50.634;3.062;2023-04-24T09:40:10;58.25;51.22;76.73;;
75467;Laerm;64050;50.634;3.062;2023-04-24T09:42:37;56.30;51.16;69.54;;
75467;Laerm;64050;50.634;3.062;2023-04-24T09:45:02;56.56;50.74;70.57;;
75467;Laerm;64050;50.634;3.062;2023-04-24T09:47:28;56.82;51.06;73.36;;
75467;Laerm;64050;50.634;3.062;2023-04-24T09:50:01;56.15;50.81;71.58;;
75467;Laerm;64050;50.634;3.062;2023-04-24T09:52:33;55.39;51.04;73.05;;
75467;Laerm;64050;50.634;3.062;2023-04-24T09:54:58;56.60;51.54;72.28;;
75467;Laerm;64050;50.634;3.062;2023-04-24T09:57:24;55.75;50.96;65.45;;
75467;Laerm;64050;50.634;3.062;2023-04-24T09:59:49;55.74;50.76;72.65;;
75467;Laerm;64050;50.634;3.062;2023-04-24T10:02:19;54.97;50.72;70.95;;
75467;Laerm;64050;50.634;3.062;2023-04-24T10:04:53;55.67;51.08;75.77;;
75467;Laerm;64050;50.634;3.062;2023-04-24T10:07:20;55.10;50.66;66.32;;
75467;Laerm;64050;50.634;3.062;2023-04-24T10:09:45;54.73;50.80;65.27;;
75467;Laerm;64050;50.634;3.062;2023-04-24T10:12:10;54.73;51.04;61.87;;
75467;Laerm;64050;50.634;3.062;2023-04-24T10:14:35;55.06;50.76;68.25;;
75467;Laerm;64050;50.634;3.062;2023-04-24T10:17:01;55.15;50.92;68.56;;
75467;Laerm;64050;50.634;3.062;2023-04-24T10:19:26;56.54;50.85;68.10;;
75467;Laerm;64050;50.634;3.062;2023-04-24T10:21:52;55.70;51.78;65.26;;
75467;Laerm;64050;50.634;3.062;2023-04-24T10:24:18;55.47;50.79;70.32;;
75467;Laerm;64050;50.634;3.062;2023-04-24T10:26:44;55.21;50.78;64.88;;
75467;Laerm;64050;50.634;3.062;2023-04-24T10:29:10;55.47;51.27;63.95;;
75467;Laerm;64050;50.634;3.062;2023-04-24T10:31:37;55.21;51.19;64.98;;
75467;Laerm;64050;50.634;3.062;2023-04-24T10:34:04;56.36;51.46;77.59;;
75467;Laerm;64050;50.634;3.062;2023-04-24T10:36:30;60.68;51.01;85.74;;
75467;Laerm;64050;50.634;3.062;2023-04-24T10:38:58;59.25;52.21;80.35;;
75467;Laerm;64050;50.634;3.062;2023-04-24T10:41:25;64.64;51.78;85.24;;
75467;Laerm;64050;50.634;3.062;2023-04-24T10:46:46;55.47;51.03;62.06;;
75467;Laerm;64050;50.634;3.062;2023-04-24T10:49:13;55.58;50.89;63.67;;
75467;Laerm;64050;50.634;3.062;2023-04-24T10:51:45;56.85;52.37;67.58;;
75467;Laerm;64050;50.634;3.062;2023-04-24T10:54:21;56.57;52.05;66.35;;
75467;Laerm;64050;50.634;3.062;2023-04-24T10:56:47;56.62;52.34;64.05;;
75467;Laerm;64050;50.634;3.062;2023-04-24T10:59:12;56.06;51.42;62.09;;
75467;Laerm;64050;50.634;3.062;2023-04-24T11:01:52;57.12;52.39;75.53;;
75467;Laerm;64050;50.634;3.062;2023-04-24T11:04:21;56.68;51.62;63.95;;
75467;Laerm;64050;50.634;3.062;2023-04-24T11:06:53;60.79;52.05;87.36;;
75467;Laerm;64050;50.634;3.062;2023-04-24T11:09:18;61.42;52.49;84.74;;
75467;Laerm;64050;50.634;3.062;2023-04-24T11:11:46;56.68;52.72;67.44;;
75467;Laerm;64050;50.634;3.062;2023-04-24T11:14:14;55.99;51.81;67.04;;
75467;Laerm;64050;50.634;3.062;2023-04-24T11:29:38;58.06;51.53;76.72;;
75467;Laerm;64050;50.634;3.062;2023-04-24T11:34:48;57.89;51.66;70.87;;
75467;Laerm;64050;50.634;3.062;2023-04-24T11:37:14;57.03;51.41;68.12;;
75467;Laerm;64050;50.634;3.062;2023-04-24T11:39:40;56.44;51.23;65.23;;
75467;Laerm;64050;50.634;3.062;2023-04-24T11:42:05;56.44;51.54;68.51;;
75467;Laerm;64050;50.634;3.062;2023-04-24T11:44:33;57.02;51.67;66.59;;
75467;Laerm;64050;50.634;3.062;2023-04-24T11:46:58;57.33;52.57;64.92;;
75467;Laerm;64050;50.634;3.062;2023-04-24T11:49:24;57.11;51.49;71.60;;
75467;Laerm;64050;50.634;3.062;2023-04-24T11:51:50;56.35;50.65;67.91;;
75467;Laerm;64050;50.634;3.062;2023-04-24T11:54:15;56.45;52.42;65.15;;
75467;Laerm;64050;50.634;3.062;2023-04-24T11:56:44;55.86;51.07;66.96;;
75467;Laerm;64050;50.634;3.062;2023-04-24T11:59:11;55.61;50.84;67.15;;
75467;Laerm;64050;50.634;3.062;2023-04-24T12:01:45;55.50;50.67;68.06;;
75467;Laerm;64050;50.634;3.062;2023-04-24T12:04:11;55.62;51.28;68.37;;
75467;Laerm;64050;50.634;3.062;2023-04-24T12:06:37;56.27;50.59;70.62;;
75467;Laerm;64050;50.634;3.062;2023-04-24T12:09:02;55.31;51.12;64.24;;
75467;Laerm;64050;50.634;3.062;2023-04-24T12:11:27;57.11;51.28;76.47;;
75467;Laerm;64050;50.634;3.062;2023-04-24T12:13:53;55.05;51.00;71.84;;
75467;Laerm;64050;50.634;3.062;2023-04-24T12:16:18;54.22;50.41;70.52;;
75467;Laerm;64050;50.634;3.062;2023-04-24T12:18:44;56.97;50.36;78.58;;
75467;Laerm;64050;50.634;3.062;2023-04-24T12:21:20;54.69;50.37;75.44;;
75467;Laerm;64050;50.634;3.062;2023-04-24T12:23:45;53.73;49.84;65.24;;
75467;Laerm;64050;50.634;3.062;2023-04-24T12:26:12;52.04;43.83;57.50;;
75467;Laerm;64050;50.634;3.062;2023-04-24T12:28:37;49.66;45.93;67.75;;
75467;Laerm;64050;50.634;3.062;2023-04-24T12:31:03;50.32;46.67;62.99;;
75467;Laerm;64050;50.634;3.062;2023-04-24T12:33:32;50.33;46.72;64.22;;
75467;Laerm;64050;50.634;3.062;2023-04-24T12:35:57;51.00;46.94;64.32;;
75467;Laerm;64050;50.634;3.062;2023-04-24T12:38:23;50.39;45.89;66.94;;
75467;Laerm;64050;50.634;3.062;2023-04-24T12:41:12;50.42;45.68;60.30;;
75467;Laerm;64050;50.634;3.062;2023-04-24T12:43:36;50.48;46.70;63.37;;
75467;Laerm;64050;50.634;3.062;2023-04-24T12:46:02;51.22;46.06;63.30;;
75467;Laerm;64050;50.634;3.062;2023-04-24T12:48:28;55.63;46.42;69.46;;
75467;Laerm;64050;50.634;3.062;2023-04-24T12:50:53;58.60;54.15;69.25;;
75467;Laerm;64050;50.634;3.062;2023-04-24T12:53:20;61.36;51.62;75.68;;
75467;Laerm;64050;50.634;3.062;2023-04-24T12:55:45;53.51;45.51;65.73;;
75467;Laerm;64050;50.634;3.062;2023-04-24T12:58:12;53.51;44.00;79.43;;
75467;Laerm;64050;50.634;3.062;2023-04-24T13:00:38;52.84;44.57;71.58;;
75467;Laerm;64050;50.634;3.062;2023-04-24T13:03:04;52.69;44.69;70.23;;
75467;Laerm;64050;50.634;3.062;2023-04-24T13:05:29;52.06;44.36;71.69;;
75467;Laerm;64050;50.634;3.062;2023-04-24T13:07:54;54.08;46.81;75.40;;
75467;Laerm;64050;50.634;3.062;2023-04-24T13:10:20;56.88;47.50;77.69;;
75467;Laerm;64050;50.634;3.062;2023-04-24T13:12:45;58.55;46.51;77.48;;
75467;Laerm;64050;50.634;3.062;2023-04-24T13:15:11;53.80;48.27;61.76;;
75467;Laerm;64050;50.634;3.062;2023-04-24T13:17:36;51.80;45.97;63.06;;
75467;Laerm;64050;50.634;3.062;2023-04-24T13:20:01;51.86;44.59;65.72;;
75467;Laerm;64050;50.634;3.062;2023-04-24T13:22:27;51.96;44.36;72.98;;
75467;Laerm;64050;50.634;3.062;2023-04-24T13:24:53;52.01;44.63;69.54;;
75467;Laerm;64050;50.634;3.062;2023-04-24T13:27:18;49.49;43.06;60.87;;
75467;Laerm;64050;50.634;3.062;2023-04-24T13:29:43;50.86;43.13;70.55;;
75467;Laerm;64050;50.634;3.062;2023-04-24T13:32:09;51.00;43.30;66.06;;
75467;Laerm;64050;50.634;3.062;2023-04-24T13:34:34;52.55;44.08;69.31;;
75467;Laerm;64050;50.634;3.062;2023-04-24T13:37:00;53.97;43.59;75.67;;
75467;Laerm;64050;50.634;3.062;2023-04-24T13:39:25;53.03;46.92;64.84;;
75467;Laerm;64050;50.634;3.062;2023-04-24T13:41:51;50.07;43.41;63.01;;
75467;Laerm;64050;50.634;3.062;2023-04-24T13:44:17;51.76;44.32;66.12;;
75467;Laerm;64050;50.634;3.062;2023-04-24T13:46:43;51.33;44.12;66.52;;
75467;Laerm;64050;50.634;3.062;2023-04-24T13:49:09;50.92;44.25;65.73;;
75467;Laerm;64050;50.634;3.062;2023-04-24T13:51:35;52.47;44.33;67.51;;
75467;Laerm;64050;50.634;3.062;2023-04-24T13:54:00;50.11;44.40;63.16;;
75467;Laerm;64050;50.634;3.062;2023-04-24T13:56:25;52.78;45.58;68.59;;